sensor_id;sensor_type;location;lat;lon;timestamp;temperature;humidity
7129;DHT22;3606;52.930;8.644;2022-09-01T00:02:04;11.90;99.90
7129;DHT22;3606;52.930;8.644;2022-09-01T00:04:36;11.80;99.90
7129;DHT22;3606;52.930;8.644;2022-09-01T00:07:04;11.80;1.00
7129;DHT22;3606;52.930;8.644;2022-09-01T00:09:30;11.90;1.00
7129;DHT22;3606;52.930;8.644;2022-09-01T00:11:56;11.80;1.00
7129;DHT22;3606;52.930;8.644;2022-09-01T00:14:25;11.80;1.00
7129;DHT22;3606;52.930;8.644;2022-09-01T00:16:51;11.70;1.00
7129;DHT22;3606;52.930;8.644;2022-09-01T00:19:18;11.70;1.00
7129;DHT22;3606;52.930;8.644;2022-09-01T00:21:44;11.70;1.00
7129;DHT22;3606;52.930;8.644;2022-09-01T00:24:13;11.60;1.00
7129;DHT22;3606;52.930;8.644;2022-09-01T00:26:39;11.70;1.00
7129;DHT22;3606;52.930;8.644;2022-09-01T00:29:05;11.60;29.30
7129;DHT22;3606;52.930;8.644;2022-09-01T00:31:31;11.70;99.90
7129;DHT22;3606;52.930;8.644;2022-09-01T00:33:58;11.80;21.20
7129;DHT22;3606;52.930;8.644;2022-09-01T00:36:24;11.80;1.00
7129;DHT22;3606;52.930;8.644;2022-09-01T00:38:50;11.80;48.80
7129;DHT22;3606;52.930;8.644;2022-09-01T00:41:18;11.80;1.00
7129;DHT22;3606;52.930;8.644;2022-09-01T00:43:47;11.70;23.50
7129;DHT22;3606;52.930;8.644;2022-09-01T00:46:20;11.70;99.90
7129;DHT22;3606;52.930;8.644;2022-09-01T00:48:50;11.70;99.90
7129;DHT22;3606;52.930;8.644;2022-09-01T00:51:17;11.60;99.90
7129;DHT22;3606;52.930;8.644;2022-09-01T00:53:43;11.60;99.90
7129;DHT22;3606;52.930;8.644;2022-09-01T00:56:10;11.60;99.90
7129;DHT22;3606;52.930;8.644;2022-09-01T00:58:38;11.60;99.90
7129;DHT22;3606;52.930;8.644;2022-09-01T01:01:06;11.60;99.90
7129;DHT22;3606;52.930;8.644;2022-09-01T01:03:33;11.70;99.90
7129;DHT22;3606;52.930;8.644;2022-09-01T01:06:01;11.80;99.90
7129;DHT22;3606;52.930;8.644;2022-09-01T01:08:31;11.80;99.90
7129;DHT22;3606;52.930;8.644;2022-09-01T01:11:07;11.80;99.90
7129;DHT22;3606;52.930;8.644;2022-09-01T01:13:49;11.80;99.90
7129;DHT22;3606;52.930;8.644;2022-09-01T01:16:16;11.90;99.90
7129;DHT22;3606;52.930;8.644;2022-09-01T01:18:42;12.10;52.70
7129;DHT22;3606;52.930;8.644;2022-09-01T01:21:15;12.10;1.00
7129;DHT22;3606;52.930;8.644;2022-09-01T01:26:43;12.20;1.00
7129;DHT22;3606;52.930;8.644;2022-09-01T01:29:10;12.20;1.00
7129;DHT22;3606;52.930;8.644;2022-09-01T01:31:36;12.20;1.00
7129;DHT22;3606;52.930;8.644;2022-09-01T01:34:03;12.30;1.00
7129;DHT22;3606;52.930;8.644;2022-09-01T01:36:34;12.30;1.00
7129;DHT22;3606;52.930;8.644;2022-09-01T01:39:07;12.30;1.00
7129;DHT22;3606;52.930;8.644;2022-09-01T01:41:34;12.30;1.00
7129;DHT22;3606;52.930;8.644;2022-09-01T01:44:02;12.30;1.00
7129;DHT22;3606;52.930;8.644;2022-09-01T01:46:31;12.40;1.00
7129;DHT22;3606;52.930;8.644;2022-09-01T01:48:58;12.40;1.00
7129;DHT22;3606;52.930;8.644;2022-09-01T01:51:26;12.40;1.00
7129;DHT22;3606;52.930;8.644;2022-09-01T01:53:56;12.50;1.00
7129;DHT22;3606;52.930;8.644;2022-09-01T01:56:24;12.50;1.00
7129;DHT22;3606;52.930;8.644;2022-09-01T01:58:50;12.50;1.00
7129;DHT22;3606;52.930;8.644;2022-09-01T02:01:20;12.50;1.00
7129;DHT22;3606;52.930;8.644;2022-09-01T02:03:48;12.50;1.00
7129;DHT22;3606;52.930;8.644;2022-09-01T02:06:17;12.40;1.00
7129;DHT22;3606;52.930;8.644;2022-09-01T02:08:45;12.40;1.00
7129;DHT22;3606;52.930;8.644;2022-09-01T02:11:11;12.30;1.00
7129;DHT22;3606;52.930;8.644;2022-09-01T02:13:37;12.20;1.00
7129;DHT22;3606;52.930;8.644;2022-09-01T02:16:06;12.10;18.40
7129;DHT22;3606;52.930;8.644;2022-09-01T02:18:39;12.10;46.10
7129;DHT22;3606;52.930;8.644;2022-09-01T02:21:08;12.10;79.30
7129;DHT22;3606;52.930;8.644;2022-09-01T02:23:36;12.10;1.00
7129;DHT22;3606;52.930;8.644;2022-09-01T02:26:03;12.10;76.20
7129;DHT22;3606;52.930;8.644;2022-09-01T02:28:32;12.00;99.90
7129;DHT22;3606;52.930;8.644;2022-09-01T02:31:02;12.00;99.90
7129;DHT22;3606;52.930;8.644;2022-09-01T02:33:29;11.90;99.90
7129;DHT22;3606;52.930;8.644;2022-09-01T02:36:01;11.90;99.90
7129;DHT22;3606;52.930;8.644;2022-09-01T02:38:28;11.80;99.90
7129;DHT22;3606;52.930;8.644;2022-09-01T02:41:00;11.80;99.90
7129;DHT22;3606;52.930;8.644;2022-09-01T02:43:27;11.70;1.00
7129;DHT22;3606;52.930;8.644;2022-09-01T02:45:55;11.70;1.00
7129;DHT22;3606;52.930;8.644;2022-09-01T02:48:28;11.60;1.00
7129;DHT22;3606;52.930;8.644;2022-09-01T02:50:58;11.70;1.00
7129;DHT22;3606;52.930;8.644;2022-09-01T02:53:25;11.60;1.00
7129;DHT22;3606;52.930;8.644;2022-09-01T02:55:51;11.50;1.00
7129;DHT22;3606;52.930;8.644;2022-09-01T02:58:16;11.30;1.00
7129;DHT22;3606;52.930;8.644;2022-09-01T03:00:44;11.20;99.90
7129;DHT22;3606;52.930;8.644;2022-09-01T03:03:10;11.10;99.90
7129;DHT22;3606;52.930;8.644;2022-09-01T03:05:42;11.00;1.00
7129;DHT22;3606;52.930;8.644;2022-09-01T03:08:10;10.90;1.00
7129;DHT22;3606;52.930;8.644;2022-09-01T03:10:39;10.90;99.90
7129;DHT22;3606;52.930;8.644;2022-09-01T03:13:09;10.80;99.90
7129;DHT22;3606;52.930;8.644;2022-09-01T03:15:36;10.70;1.00
7129;DHT22;3606;52.930;8.644;2022-09-01T03:18:03;10.70;1.00
7129;DHT22;3606;52.930;8.644;2022-09-01T03:20:31;10.60;99.90
7129;DHT22;3606;52.930;8.644;2022-09-01T03:23:03;10.60;99.90
7129;DHT22;3606;52.930;8.644;2022-09-01T03:25:33;10.60;99.90
7129;DHT22;3606;52.930;8.644;2022-09-01T03:27:58;10.50;99.90
7129;DHT22;3606;52.930;8.644;2022-09-01T03:30:26;10.50;99.90
7129;DHT22;3606;52.930;8.644;2022-09-01T03:32:53;10.50;99.90
7129;DHT22;3606;52.930;8.644;2022-09-01T03:35:19;10.50;99.90
7129;DHT22;3606;52.930;8.644;2022-09-01T03:37:45;10.40;1.00
7129;DHT22;3606;52.930;8.644;2022-09-01T03:40:12;10.50;99.90
7129;DHT22;3606;52.930;8.644;2022-09-01T03:42:38;10.50;99.90
7129;DHT22;3606;52.930;8.644;2022-09-01T03:45:05;10.40;1.00
7129;DHT22;3606;52.930;8.644;2022-09-01T03:47:35;10.50;84.40
7129;DHT22;3606;52.930;8.644;2022-09-01T03:50:16;10.40;99.90
7129;DHT22;3606;52.930;8.644;2022-09-01T03:52:56;10.30;1.00
7129;DHT22;3606;52.930;8.644;2022-09-01T03:55:26;10.50;1.00
7129;DHT22;3606;52.930;8.644;2022-09-01T03:57:54;10.40;99.90
7129;DHT22;3606;52.930;8.644;2022-09-01T04:00:21;10.50;1.00
7129;DHT22;3606;52.930;8.644;2022-09-01T04:02:52;10.50;1.00
7129;DHT22;3606;52.930;8.644;2022-09-01T04:05:22;10.40;1.00
7129;DHT22;3606;52.930;8.644;2022-09-01T04:07:49;10.40;1.00
7129;DHT22;3606;52.930;8.644;2022-09-01T04:10:16;10.40;99.90
7129;DHT22;3606;52.930;8.644;2022-09-01T04:12:43;10.40;99.90
7129;DHT22;3606;52.930;8.644;2022-09-01T04:15:11;10.30;1.00
7129;DHT22;3606;52.930;8.644;2022-09-01T04:17:37;10.30;99.90
7129;DHT22;3606;52.930;8.644;2022-09-01T04:20:21;10.20;99.90
7129;DHT22;3606;52.930;8.644;2022-09-01T04:22:48;10.10;1.00
7129;DHT22;3606;52.930;8.644;2022-09-01T04:25:18;10.10;1.00
7129;DHT22;3606;52.930;8.644;2022-09-01T04:27:49;10.10;1.00
7129;DHT22;3606;52.930;8.644;2022-09-01T04:30:15;10.10;1.00
7129;DHT22;3606;52.930;8.644;2022-09-01T04:32:41;10.10;1.00
7129;DHT22;3606;52.930;8.644;2022-09-01T04:35:08;10.10;1.00
7129;DHT22;3606;52.930;8.644;2022-09-01T04:37:36;10.00;22.60
7129;DHT22;3606;52.930;8.644;2022-09-01T04:40:02;10.10;69.60
7129;DHT22;3606;52.930;8.644;2022-09-01T04:42:29;10.10;88.20
7129;DHT22;3606;52.930;8.644;2022-09-01T04:44:57;10.20;99.90
7129;DHT22;3606;52.930;8.644;2022-09-01T04:47:25;10.20;94.30
7129;DHT22;3606;52.930;8.644;2022-09-01T04:49:58;10.20;71.40
7129;DHT22;3606;52.930;8.644;2022-09-01T04:52:27;10.20;95.50
7129;DHT22;3606;52.930;8.644;2022-09-01T04:54:53;10.20;78.00
7129;DHT22;3606;52.930;8.644;2022-09-01T04:57:20;10.20;77.70
7129;DHT22;3606;52.930;8.644;2022-09-01T04:59:46;10.30;84.10
7129;DHT22;3606;52.930;8.644;2022-09-01T05:02:12;10.20;86.90
7129;DHT22;3606;52.930;8.644;2022-09-01T05:04:37;10.20;89.60
7129;DHT22;3606;52.930;8.644;2022-09-01T05:07:11;10.20;92.60
7129;DHT22;3606;52.930;8.644;2022-09-01T05:09:38;10.30;99.90
7129;DHT22;3606;52.930;8.644;2022-09-01T05:12:04;10.30;99.90
7129;DHT22;3606;52.930;8.644;2022-09-01T05:14:40;10.30;99.90
7129;DHT22;3606;52.930;8.644;2022-09-01T05:17:07;10.30;93.80
7129;DHT22;3606;52.930;8.644;2022-09-01T05:19:42;10.40;90.50
7129;DHT22;3606;52.930;8.644;2022-09-01T05:22:09;10.30;93.80
7129;DHT22;3606;52.930;8.644;2022-09-01T05:24:36;10.30;92.60
7129;DHT22;3606;52.930;8.644;2022-09-01T05:27:03;10.30;99.90
7129;DHT22;3606;52.930;8.644;2022-09-01T05:29:29;10.30;99.90
7129;DHT22;3606;52.930;8.644;2022-09-01T05:31:55;10.30;99.90
7129;DHT22;3606;52.930;8.644;2022-09-01T05:34:22;10.40;99.90
7129;DHT22;3606;52.930;8.644;2022-09-01T05:36:52;10.40;99.90
7129;DHT22;3606;52.930;8.644;2022-09-01T05:39:19;10.50;99.90
7129;DHT22;3606;52.930;8.644;2022-09-01T05:41:45;10.60;99.90
7129;DHT22;3606;52.930;8.644;2022-09-01T05:44:13;10.70;90.60
7129;DHT22;3606;52.930;8.644;2022-09-01T05:46:42;10.90;54.20
7129;DHT22;3606;52.930;8.644;2022-09-01T05:49:09;11.00;1.00
7129;DHT22;3606;52.930;8.644;2022-09-01T05:51:40;11.20;1.00
7129;DHT22;3606;52.930;8.644;2022-09-01T05:54:07;11.30;99.90
7129;DHT22;3606;52.930;8.644;2022-09-01T05:56:34;11.40;99.90
7129;DHT22;3606;52.930;8.644;2022-09-01T05:59:06;11.60;99.90
7129;DHT22;3606;52.930;8.644;2022-09-01T06:01:32;11.80;1.00
7129;DHT22;3606;52.930;8.644;2022-09-01T06:04:00;12.20;1.00
7129;DHT22;3606;52.930;8.644;2022-09-01T06:06:38;12.50;99.90
7129;DHT22;3606;52.930;8.644;2022-09-01T06:09:06;13.00;1.00
7129;DHT22;3606;52.930;8.644;2022-09-01T06:11:33;13.30;1.00
7129;DHT22;3606;52.930;8.644;2022-09-01T06:13:59;13.70;99.90
7129;DHT22;3606;52.930;8.644;2022-09-01T06:16:26;14.00;1.00
7129;DHT22;3606;52.930;8.644;2022-09-01T06:18:53;14.30;1.00
7129;DHT22;3606;52.930;8.644;2022-09-01T06:21:20;14.50;1.00
7129;DHT22;3606;52.930;8.644;2022-09-01T06:23:47;14.60;1.00
7129;DHT22;3606;52.930;8.644;2022-09-01T06:26:20;14.80;1.00
7129;DHT22;3606;52.930;8.644;2022-09-01T06:28:47;15.20;99.90
7129;DHT22;3606;52.930;8.644;2022-09-01T06:31:13;15.60;38.00
7129;DHT22;3606;52.930;8.644;2022-09-01T06:33:39;15.80;1.00
7129;DHT22;3606;52.930;8.644;2022-09-01T06:36:05;16.00;1.00
7129;DHT22;3606;52.930;8.644;2022-09-01T06:38:34;16.10;1.00
7129;DHT22;3606;52.930;8.644;2022-09-01T06:41:05;16.40;1.00
7129;DHT22;3606;52.930;8.644;2022-09-01T06:43:38;16.70;1.00
7129;DHT22;3606;52.930;8.644;2022-09-01T06:46:06;16.90;99.90
7129;DHT22;3606;52.930;8.644;2022-09-01T06:48:35;17.20;99.90
7129;DHT22;3606;52.930;8.644;2022-09-01T06:51:03;17.40;99.90
7129;DHT22;3606;52.930;8.644;2022-09-01T06:53:29;17.50;99.90
7129;DHT22;3606;52.930;8.644;2022-09-01T06:55:56;17.90;99.90
7129;DHT22;3606;52.930;8.644;2022-09-01T06:58:22;18.10;91.90
7129;DHT22;3606;52.930;8.644;2022-09-01T07:00:49;18.50;53.50
7129;DHT22;3606;52.930;8.644;2022-09-01T07:03:15;18.80;1.00
7129;DHT22;3606;52.930;8.644;2022-09-01T07:05:44;18.90;1.00
7129;DHT22;3606;52.930;8.644;2022-09-01T07:08:12;18.90;1.00
7129;DHT22;3606;52.930;8.644;2022-09-01T07:10:51;19.10;1.00
7129;DHT22;3606;52.930;8.644;2022-09-01T07:13:21;19.40;1.00
7129;DHT22;3606;52.930;8.644;2022-09-01T07:15:50;19.90;1.00
7129;DHT22;3606;52.930;8.644;2022-09-01T07:18:18;20.30;1.00
7129;DHT22;3606;52.930;8.644;2022-09-01T07:20:46;20.80;1.00
7129;DHT22;3606;52.930;8.644;2022-09-01T07:23:14;21.00;1.00
7129;DHT22;3606;52.930;8.644;2022-09-01T07:25:43;21.40;1.00
7129;DHT22;3606;52.930;8.644;2022-09-01T07:28:09;21.70;1.00
7129;DHT22;3606;52.930;8.644;2022-09-01T07:30:45;21.60;1.00
7129;DHT22;3606;52.930;8.644;2022-09-01T07:33:16;21.80;1.00
7129;DHT22;3606;52.930;8.644;2022-09-01T07:35:48;21.90;99.90
7129;DHT22;3606;52.930;8.644;2022-09-01T07:38:14;21.70;99.90
7129;DHT22;3606;52.930;8.644;2022-09-01T07:40:44;21.70;99.90
7129;DHT22;3606;52.930;8.644;2022-09-01T07:43:16;21.80;99.90
7129;DHT22;3606;52.930;8.644;2022-09-01T07:45:46;22.40;99.90
7129;DHT22;3606;52.930;8.644;2022-09-01T07:48:15;22.60;99.90
7129;DHT22;3606;52.930;8.644;2022-09-01T07:50:42;22.60;99.90
7129;DHT22;3606;52.930;8.644;2022-09-01T07:53:38;22.90;99.90
7129;DHT22;3606;52.930;8.644;2022-09-01T07:56:09;22.80;99.90
7129;DHT22;3606;52.930;8.644;2022-09-01T07:58:36;22.70;99.90
7129;DHT22;3606;52.930;8.644;2022-09-01T08:01:13;22.90;99.90
7129;DHT22;3606;52.930;8.644;2022-09-01T08:03:41;23.10;99.90
7129;DHT22;3606;52.930;8.644;2022-09-01T08:06:10;23.70;99.90
7129;DHT22;3606;52.930;8.644;2022-09-01T08:08:37;24.20;99.90
7129;DHT22;3606;52.930;8.644;2022-09-01T08:11:03;24.60;99.90
7129;DHT22;3606;52.930;8.644;2022-09-01T08:13:28;25.10;99.90
7129;DHT22;3606;52.930;8.644;2022-09-01T08:15:54;25.00;99.90
7129;DHT22;3606;52.930;8.644;2022-09-01T08:18:20;25.00;99.90
7129;DHT22;3606;52.930;8.644;2022-09-01T08:20:46;25.50;99.90
7129;DHT22;3606;52.930;8.644;2022-09-01T08:23:15;25.70;99.90
7129;DHT22;3606;52.930;8.644;2022-09-01T08:25:43;25.80;99.90
7129;DHT22;3606;52.930;8.644;2022-09-01T08:28:08;26.00;99.90
7129;DHT22;3606;52.930;8.644;2022-09-01T08:30:34;26.20;99.90
7129;DHT22;3606;52.930;8.644;2022-09-01T08:33:02;26.20;99.90
7129;DHT22;3606;52.930;8.644;2022-09-01T08:35:28;25.80;99.90
7129;DHT22;3606;52.930;8.644;2022-09-01T08:37:54;26.00;99.90
7129;DHT22;3606;52.930;8.644;2022-09-01T08:40:21;26.10;99.90
7129;DHT22;3606;52.930;8.644;2022-09-01T08:45:31;26.50;99.90
7129;DHT22;3606;52.930;8.644;2022-09-01T08:48:16;26.40;99.90
7129;DHT22;3606;52.930;8.644;2022-09-01T08:50:48;26.70;99.90
7129;DHT22;3606;52.930;8.644;2022-09-01T08:53:30;27.00;99.90
7129;DHT22;3606;52.930;8.644;2022-09-01T08:55:58;27.10;99.90
7129;DHT22;3606;52.930;8.644;2022-09-01T08:58:27;26.60;99.90
7129;DHT22;3606;52.930;8.644;2022-09-01T09:00:58;26.40;99.90
7129;DHT22;3606;52.930;8.644;2022-09-01T09:06:23;27.00;99.90
7129;DHT22;3606;52.930;8.644;2022-09-01T09:09:04;27.50;99.90
7129;DHT22;3606;52.930;8.644;2022-09-01T09:17:01;28.90;99.90
7129;DHT22;3606;52.930;8.644;2022-09-01T09:19:31;29.50;99.90
7129;DHT22;3606;52.930;8.644;2022-09-01T09:22:00;30.00;99.90
7129;DHT22;3606;52.930;8.644;2022-09-01T09:27:37;30.20;99.90
7129;DHT22;3606;52.930;8.644;2022-09-01T09:32:51;29.20;99.90
7129;DHT22;3606;52.930;8.644;2022-09-01T09:43:24;27.90;99.90
7129;DHT22;3606;52.930;8.644;2022-09-01T09:48:42;28.80;99.90
7129;DHT22;3606;52.930;8.644;2022-09-01T09:51:25;29.30;99.90
7129;DHT22;3606;52.930;8.644;2022-09-01T09:53:52;29.10;99.90
7129;DHT22;3606;52.930;8.644;2022-09-01T09:56:21;29.00;99.90
7129;DHT22;3606;52.930;8.644;2022-09-01T09:58:51;29.30;99.90
7129;DHT22;3606;52.930;8.644;2022-09-01T10:03:54;29.40;99.90
7129;DHT22;3606;52.930;8.644;2022-09-01T10:09:14;29.20;99.90
7129;DHT22;3606;52.930;8.644;2022-09-01T10:11:43;29.00;99.90
7129;DHT22;3606;52.930;8.644;2022-09-01T10:14:20;29.00;99.90
7129;DHT22;3606;52.930;8.644;2022-09-01T10:16:51;29.00;99.90
7129;DHT22;3606;52.930;8.644;2022-09-01T10:19:17;29.10;99.90
7129;DHT22;3606;52.930;8.644;2022-09-01T10:21:44;29.60;99.90
7129;DHT22;3606;52.930;8.644;2022-09-01T10:26:47;30.60;99.90
7129;DHT22;3606;52.930;8.644;2022-09-01T10:29:15;30.60;99.90
7129;DHT22;3606;52.930;8.644;2022-09-01T10:31:43;30.50;99.90
7129;DHT22;3606;52.930;8.644;2022-09-01T10:34:14;30.10;99.90
7129;DHT22;3606;52.930;8.644;2022-09-01T10:36:43;30.10;99.90
7129;DHT22;3606;52.930;8.644;2022-09-01T10:39:11;30.30;99.90
7129;DHT22;3606;52.930;8.644;2022-09-01T10:41:45;30.10;99.90
7129;DHT22;3606;52.930;8.644;2022-09-01T10:44:35;30.50;99.90
7129;DHT22;3606;52.930;8.644;2022-09-01T10:47:10;31.30;99.90
7129;DHT22;3606;52.930;8.644;2022-09-01T10:55:30;31.40;99.90
7129;DHT22;3606;52.930;8.644;2022-09-01T11:13:49;30.90;99.90
7129;DHT22;3606;52.930;8.644;2022-09-01T11:16:29;30.70;99.90
7129;DHT22;3606;52.930;8.644;2022-09-01T11:22:33;31.00;99.90
7129;DHT22;3606;52.930;8.644;2022-09-01T11:30:23;30.80;99.90
7129;DHT22;3606;52.930;8.644;2022-09-01T11:32:56;31.20;99.90
7129;DHT22;3606;52.930;8.644;2022-09-01T11:35:24;30.80;99.90
7129;DHT22;3606;52.930;8.644;2022-09-01T11:37:55;30.00;99.90
7129;DHT22;3606;52.930;8.644;2022-09-01T11:40:25;29.40;99.90
7129;DHT22;3606;52.930;8.644;2022-09-01T11:42:52;28.50;99.90
7129;DHT22;3606;52.930;8.644;2022-09-01T11:45:27;27.20;99.90
7129;DHT22;3606;52.930;8.644;2022-09-01T11:47:57;27.50;99.90
7129;DHT22;3606;52.930;8.644;2022-09-01T11:50:28;28.20;99.90
7129;DHT22;3606;52.930;8.644;2022-09-01T11:55:32;28.80;99.90
7129;DHT22;3606;52.930;8.644;2022-09-01T11:57:59;28.90;99.90
7129;DHT22;3606;52.930;8.644;2022-09-01T12:00:28;28.50;99.90
7129;DHT22;3606;52.930;8.644;2022-09-01T12:02:54;28.70;99.90
7129;DHT22;3606;52.930;8.644;2022-09-01T12:05:32;28.20;99.90
7129;DHT22;3606;52.930;8.644;2022-09-01T12:08:02;27.70;99.90
7129;DHT22;3606;52.930;8.644;2022-09-01T12:10:34;27.80;99.90
7129;DHT22;3606;52.930;8.644;2022-09-01T12:15:28;27.80;99.90
7129;DHT22;3606;52.930;8.644;2022-09-01T12:18:18;26.70;99.90
7129;DHT22;3606;52.930;8.644;2022-09-01T12:20:47;25.90;99.90
7129;DHT22;3606;52.930;8.644;2022-09-01T12:23:28;26.20;99.90
7129;DHT22;3606;52.930;8.644;2022-09-01T12:25:57;26.60;99.90
7129;DHT22;3606;52.930;8.644;2022-09-01T12:28:26;26.80;99.90
7129;DHT22;3606;52.930;8.644;2022-09-01T12:30:57;26.50;99.90
7129;DHT22;3606;52.930;8.644;2022-09-01T12:33:23;27.00;99.90
7129;DHT22;3606;52.930;8.644;2022-09-01T12:35:51;28.00;99.90
7129;DHT22;3606;52.930;8.644;2022-09-01T12:40:53;28.50;99.90
7129;DHT22;3606;52.930;8.644;2022-09-01T12:43:35;28.00;99.90
7129;DHT22;3606;52.930;8.644;2022-09-01T12:46:02;27.30;99.90
7129;DHT22;3606;52.930;8.644;2022-09-01T12:48:34;26.20;99.90
7129;DHT22;3606;52.930;8.644;2022-09-01T12:51:24;25.70;99.90
7129;DHT22;3606;52.930;8.644;2022-09-01T12:53:53;27.00;99.90
7129;DHT22;3606;52.930;8.644;2022-09-01T12:56:29;28.00;99.90
7129;DHT22;3606;52.930;8.644;2022-09-01T12:59:11;28.60;99.90
7129;DHT22;3606;52.930;8.644;2022-09-01T13:01:39;28.30;99.90
7129;DHT22;3606;52.930;8.644;2022-09-01T13:04:06;28.30;99.90
7129;DHT22;3606;52.930;8.644;2022-09-01T13:06:32;28.90;99.90
7129;DHT22;3606;52.930;8.644;2022-09-01T13:08:58;28.00;99.90
7129;DHT22;3606;52.930;8.644;2022-09-01T13:11:23;29.00;99.90
7129;DHT22;3606;52.930;8.644;2022-09-01T13:13:49;29.70;99.90
7129;DHT22;3606;52.930;8.644;2022-09-01T13:16:14;28.80;99.90
7129;DHT22;3606;52.930;8.644;2022-09-01T13:18:41;28.20;99.90
7129;DHT22;3606;52.930;8.644;2022-09-01T13:21:07;29.20;99.90
7129;DHT22;3606;52.930;8.644;2022-09-01T13:23:33;30.60;99.90
7129;DHT22;3606;52.930;8.644;2022-09-01T13:25:59;31.50;99.90
7129;DHT22;3606;52.930;8.644;2022-09-01T13:28:25;31.70;99.90
7129;DHT22;3606;52.930;8.644;2022-09-01T13:30:57;30.90;99.90
7129;DHT22;3606;52.930;8.644;2022-09-01T13:33:24;31.40;99.90
7129;DHT22;3606;52.930;8.644;2022-09-01T13:35:50;30.30;99.90
7129;DHT22;3606;52.930;8.644;2022-09-01T13:38:16;28.80;99.90
7129;DHT22;3606;52.930;8.644;2022-09-01T13:40:43;28.80;99.90
7129;DHT22;3606;52.930;8.644;2022-09-01T13:43:15;28.70;99.90
7129;DHT22;3606;52.930;8.644;2022-09-01T13:45:40;29.70;99.90
7129;DHT22;3606;52.930;8.644;2022-09-01T13:48:07;29.70;99.90
7129;DHT22;3606;52.930;8.644;2022-09-01T13:50:34;30.30;99.90
7129;DHT22;3606;52.930;8.644;2022-09-01T13:53:00;31.10;99.90
7129;DHT22;3606;52.930;8.644;2022-09-01T13:55:28;31.60;99.90
7129;DHT22;3606;52.930;8.644;2022-09-01T13:57:54;32.00;99.90
7129;DHT22;3606;52.930;8.644;2022-09-01T14:00:27;30.10;99.90
7129;DHT22;3606;52.930;8.644;2022-09-01T14:02:55;28.30;99.90
7129;DHT22;3606;52.930;8.644;2022-09-01T14:05:25;26.80;99.90
7129;DHT22;3606;52.930;8.644;2022-09-01T14:07:51;26.40;99.90
7129;DHT22;3606;52.930;8.644;2022-09-01T14:10:19;28.40;99.90
7129;DHT22;3606;52.930;8.644;2022-09-01T14:12:45;30.10;99.90
7129;DHT22;3606;52.930;8.644;2022-09-01T14:15:13;31.10;99.90
7129;DHT22;3606;52.930;8.644;2022-09-01T14:17:40;32.00;99.90
7129;DHT22;3606;52.930;8.644;2022-09-01T14:20:09;31.80;99.90
7129;DHT22;3606;52.930;8.644;2022-09-01T14:22:37;30.40;99.90
7129;DHT22;3606;52.930;8.644;2022-09-01T14:25:05;28.40;99.90
7129;DHT22;3606;52.930;8.644;2022-09-01T14:27:31;26.60;99.90
7129;DHT22;3606;52.930;8.644;2022-09-01T14:29:57;25.70;99.90
7129;DHT22;3606;52.930;8.644;2022-09-01T14:32:22;25.00;99.90
7129;DHT22;3606;52.930;8.644;2022-09-01T14:34:52;25.10;99.90
7129;DHT22;3606;52.930;8.644;2022-09-01T14:37:18;26.10;99.90
7129;DHT22;3606;52.930;8.644;2022-09-01T14:39:56;27.60;99.90
7129;DHT22;3606;52.930;8.644;2022-09-01T14:42:22;28.70;99.90
7129;DHT22;3606;52.930;8.644;2022-09-01T14:44:50;29.60;99.90
7129;DHT22;3606;52.930;8.644;2022-09-01T14:47:16;29.60;99.90
7129;DHT22;3606;52.930;8.644;2022-09-01T14:49:42;28.50;99.90
7129;DHT22;3606;52.930;8.644;2022-09-01T14:52:08;27.60;99.90
7129;DHT22;3606;52.930;8.644;2022-09-01T14:54:36;27.30;99.90
7129;DHT22;3606;52.930;8.644;2022-09-01T14:57:04;26.20;99.90
7129;DHT22;3606;52.930;8.644;2022-09-01T14:59:30;26.50;99.90
7129;DHT22;3606;52.930;8.644;2022-09-01T15:01:56;27.30;99.90
7129;DHT22;3606;52.930;8.644;2022-09-01T15:04:21;28.30;99.90
7129;DHT22;3606;52.930;8.644;2022-09-01T15:06:47;28.70;99.90
7129;DHT22;3606;52.930;8.644;2022-09-01T15:09:13;29.00;99.90
7129;DHT22;3606;52.930;8.644;2022-09-01T15:11:42;29.60;99.90
7129;DHT22;3606;52.930;8.644;2022-09-01T15:14:08;29.40;99.90
7129;DHT22;3606;52.930;8.644;2022-09-01T15:16:35;29.60;99.90
7129;DHT22;3606;52.930;8.644;2022-09-01T15:19:05;29.40;99.90
7129;DHT22;3606;52.930;8.644;2022-09-01T15:21:33;28.20;99.90
7129;DHT22;3606;52.930;8.644;2022-09-01T15:24:00;26.90;99.90
7129;DHT22;3606;52.930;8.644;2022-09-01T15:26:26;25.90;99.90
7129;DHT22;3606;52.930;8.644;2022-09-01T15:28:52;25.00;99.90
7129;DHT22;3606;52.930;8.644;2022-09-01T15:31:22;24.20;99.90
7129;DHT22;3606;52.930;8.644;2022-09-01T15:33:49;23.80;99.90
7129;DHT22;3606;52.930;8.644;2022-09-01T15:36:21;23.80;99.90
7129;DHT22;3606;52.930;8.644;2022-09-01T15:38:47;23.70;99.90
7129;DHT22;3606;52.930;8.644;2022-09-01T15:41:21;23.70;99.90
7129;DHT22;3606;52.930;8.644;2022-09-01T15:43:47;23.70;99.90
7129;DHT22;3606;52.930;8.644;2022-09-01T15:46:13;23.70;99.90
7129;DHT22;3606;52.930;8.644;2022-09-01T15:48:40;23.90;99.90
7129;DHT22;3606;52.930;8.644;2022-09-01T15:53:47;23.70;99.90
7129;DHT22;3606;52.930;8.644;2022-09-01T15:56:13;23.60;99.90
7129;DHT22;3606;52.930;8.644;2022-09-01T15:58:38;23.40;99.90
7129;DHT22;3606;52.930;8.644;2022-09-01T16:01:04;23.30;99.90
7129;DHT22;3606;52.930;8.644;2022-09-01T16:03:30;23.30;99.90
7129;DHT22;3606;52.930;8.644;2022-09-01T16:05:59;23.00;99.90
7129;DHT22;3606;52.930;8.644;2022-09-01T16:08:25;22.80;99.90
7129;DHT22;3606;52.930;8.644;2022-09-01T16:10:51;22.60;99.90
7129;DHT22;3606;52.930;8.644;2022-09-01T16:13:17;22.60;99.90
7129;DHT22;3606;52.930;8.644;2022-09-01T16:15:54;22.50;99.90
7129;DHT22;3606;52.930;8.644;2022-09-01T16:18:28;22.50;99.90
7129;DHT22;3606;52.930;8.644;2022-09-01T16:23:46;22.30;99.90
7129;DHT22;3606;52.930;8.644;2022-09-01T16:26:13;22.30;99.90
7129;DHT22;3606;52.930;8.644;2022-09-01T16:28:44;22.30;99.90
7129;DHT22;3606;52.930;8.644;2022-09-01T16:31:14;22.20;99.90
7129;DHT22;3606;52.930;8.644;2022-09-01T16:33:49;22.20;99.90
7129;DHT22;3606;52.930;8.644;2022-09-01T16:38:59;22.20;99.90
7129;DHT22;3606;52.930;8.644;2022-09-01T16:47:03;22.00;99.90
7129;DHT22;3606;52.930;8.644;2022-09-01T16:49:54;22.00;99.90
7129;DHT22;3606;52.930;8.644;2022-09-01T16:52:32;21.90;99.90
7129;DHT22;3606;52.930;8.644;2022-09-01T17:00:22;21.80;99.90
7129;DHT22;3606;52.930;8.644;2022-09-01T17:03:09;21.80;99.90
7129;DHT22;3606;52.930;8.644;2022-09-01T17:08:28;21.70;99.90
7129;DHT22;3606;52.930;8.644;2022-09-01T17:13:42;21.80;99.90
7129;DHT22;3606;52.930;8.644;2022-09-01T17:21:42;21.60;99.90
7129;DHT22;3606;52.930;8.644;2022-09-01T17:24:33;21.50;99.90
7129;DHT22;3606;52.930;8.644;2022-09-01T17:27:07;21.30;99.90
7129;DHT22;3606;52.930;8.644;2022-09-01T17:29:48;21.10;99.90
7129;DHT22;3606;52.930;8.644;2022-09-01T17:35:48;20.70;99.90
7129;DHT22;3606;52.930;8.644;2022-09-01T17:43:59;20.20;99.90
7129;DHT22;3606;52.930;8.644;2022-09-01T17:49:08;19.90;99.90
7129;DHT22;3606;52.930;8.644;2022-09-01T17:51:47;19.60;99.90
7129;DHT22;3606;52.930;8.644;2022-09-01T17:54:57;19.50;99.90
7129;DHT22;3606;52.930;8.644;2022-09-01T17:57:24;19.40;99.90
7129;DHT22;3606;52.930;8.644;2022-09-01T18:05:39;19.00;99.90
7129;DHT22;3606;52.930;8.644;2022-09-01T18:10:57;18.50;99.90
7129;DHT22;3606;52.930;8.644;2022-09-01T18:13:35;18.30;99.90
7129;DHT22;3606;52.930;8.644;2022-09-01T18:16:07;18.10;99.90
7129;DHT22;3606;52.930;8.644;2022-09-01T18:18:43;18.00;99.90
7129;DHT22;3606;52.930;8.644;2022-09-01T18:23:41;17.70;99.90
7129;DHT22;3606;52.930;8.644;2022-09-01T18:26:15;17.50;99.90
7129;DHT22;3606;52.930;8.644;2022-09-01T18:28:41;17.40;99.90